Time;durP1;ratioP1;P1;durP2;ratioP2;P2;SDS_P1;SDS_P2;PMS_P1;PMS_P2;Temp;Humidity;BMP_temperature;BMP_pressure;BME280_temperature;BME280_humidity;BME280_pressure;Samples;Min_cycle;Max_cycle;Signal;HPM_P1;HPM_P2
2022/04/01 00:02:20;;;;;;;25.60;7.90;;;14.50;99.90;;;;;;5032536;28;20036;-79
2022/04/01 00:04:46;;;;;;;29.90;7.25;;;14.50;99.90;;;;;;5032449;28;20092;-78
2022/04/01 00:07:12;;;;;;;26.67;6.60;;;14.50;99.90;;;;;;5032476;28;20398;-78
2022/04/01 00:09:38;;;;;;;24.67;7.35;;;14.50;99.90;;;;;;5032466;28;20053;-80
2022/04/01 00:12:08;;;;;;;26.00;7.65;;;14.50;99.90;;;;;;5033530;28;20033;-80
2022/04/01 00:14:34;;;;;;;28.10;6.45;;;14.50;99.90;;;;;;5036005;28;20026;-80
2022/04/01 00:17:00;;;;;;;31.25;7.40;;;14.50;99.90;;;;;;5038150;28;20056;-79
2022/04/01 00:19:26;;;;;;;26.92;6.90;;;14.50;99.90;;;;;;5039180;28;20108;-76
2022/04/01 00:21:53;;;;;;;30.48;7.88;;;14.50;99.90;;;;;;5040248;28;20025;-77
2022/04/01 00:24:19;;;;;;;30.15;7.28;;;14.50;99.90;;;;;;5038128;28;20030;-77
2022/04/01 00:26:45;;;;;;;34.45;7.50;;;14.50;99.90;;;;;;5036279;28;20037;-79
2022/04/01 00:29:15;;;;;;;29.02;8.27;;;14.60;99.90;;;;;;5036990;28;20055;-74
2022/04/01 00:31:48;;;;;;;28.27;6.82;;;14.60;99.90;;;;;;5036644;28;20052;-80
2022/04/01 00:34:15;;;;;;;24.42;6.88;;;14.50;99.90;;;;;;5034512;28;20087;-80
2022/04/01 00:36:48;;;;;;;31.63;7.07;;;14.50;99.90;;;;;;5036462;28;20064;-76
2022/04/01 00:39:17;;;;;;;29.80;7.77;;;14.50;99.90;;;;;;5036797;28;20030;-80
2022/04/01 00:41:44;;;;;;;30.83;6.82;;;14.50;99.90;;;;;;5036716;28;20260;-80
2022/04/01 00:44:25;;;;;;;26.13;6.10;;;14.50;99.90;;;;;;5037008;28;20079;-79
2022/04/01 00:46:55;;;;;;;29.85;6.22;;;14.50;99.90;;;;;;5036886;28;20150;-77
2022/04/01 00:49:22;;;;;;;24.27;5.95;;;14.50;99.90;;;;;;5036668;28;20030;-78
2022/04/01 00:51:49;;;;;;;23.75;6.45;;;14.50;99.90;;;;;;5036152;28;20112;-77
2022/04/01 00:54:16;;;;;;;27.42;6.25;;;14.50;99.90;;;;;;5034783;28;20112;-78
2022/04/01 00:56:43;;;;;;;22.77;6.60;;;14.50;99.90;;;;;;5036701;28;20484;-76
2022/04/01 00:59:10;;;;;;;25.33;6.22;;;14.60;99.90;;;;;;5034720;28;20041;-78
2022/04/01 01:01:40;;;;;;;22.08;5.93;;;14.60;99.90;;;;;;5035927;28;20042;-76
2022/04/01 01:04:08;;;;;;;20.05;5.68;;;14.60;99.90;;;;;;5034529;28;20025;-76
2022/04/01 01:06:37;;;;;;;24.45;5.93;;;14.60;99.90;;;;;;5036226;28;20061;-76
2022/04/01 01:09:03;;;;;;;27.70;7.25;;;14.60;99.90;;;;;;5036276;28;20029;-79
2022/04/01 01:11:30;;;;;;;24.73;6.00;;;14.60;99.90;;;;;;5036941;28;20044;-76
2022/04/01 01:13:56;;;;;;;24.27;6.22;;;14.60;99.90;;;;;;5036042;28;20474;-79
2022/04/01 01:16:22;;;;;;;22.25;5.88;;;14.60;99.90;;;;;;5034546;28;20029;-79
2022/04/01 01:19:07;;;;;;;30.75;7.05;;;14.60;99.90;;;;;;5035046;28;20029;-79
2022/04/01 01:21:33;;;;;;;18.98;5.25;;;14.60;99.90;;;;;;5035715;28;20080;-77
2022/04/01 01:24:04;;;;;;;20.10;6.18;;;14.50;99.90;;;;;;5034872;28;20037;-80
2022/04/01 01:26:31;;;;;;;26.08;5.78;;;14.50;99.90;;;;;;5035282;28;20021;-78
2022/04/01 01:28:57;;;;;;;24.70;6.22;;;14.50;99.90;;;;;;5035235;28;20034;-78
2022/04/01 01:31:25;;;;;;;22.65;6.45;;;14.50;99.90;;;;;;5035237;28;20068;-77
2022/04/01 01:33:51;;;;;;;27.58;6.28;;;14.50;99.90;;;;;;5035358;28;20025;-78
2022/04/01 01:36:17;;;;;;;21.15;5.13;;;14.60;99.90;;;;;;5033917;28;20013;-79
2022/04/01 01:38:43;;;;;;;23.73;6.35;;;14.50;99.90;;;;;;5035398;28;20383;-78
2022/04/01 01:41:09;;;;;;;23.20;5.97;;;14.50;99.90;;;;;;5035188;28;20029;-79
2022/04/01 01:43:34;;;;;;;26.17;6.10;;;14.50;99.90;;;;;;5035328;28;20025;-77
2022/04/01 01:46:00;;;;;;;20.05;5.45;;;14.50;99.90;;;;;;5035353;28;20042;-76
2022/04/01 01:48:26;;;;;;;21.13;5.95;;;14.50;99.90;;;;;;5035438;28;20052;-77
2022/04/01 01:56:22;;;;;;;25.17;5.50;;;14.50;99.90;;;;;;5034998;28;20079;-78
2022/04/01 01:58:48;;;;;;;21.20;6.07;;;14.50;99.90;;;;;;5034998;28;20025;-78
2022/04/01 02:01:15;;;;;;;28.67;5.65;;;14.50;99.90;;;;;;5034655;28;20021;-79
2022/04/01 02:03:41;;;;;;;23.95;6.32;;;14.50;99.90;;;;;;5034569;28;20033;-78
2022/04/01 02:06:07;;;;;;;27.10;5.95;;;14.50;99.90;;;;;;5034601;28;20017;-77
2022/04/01 02:08:32;;;;;;;22.73;5.68;;;14.50;99.90;;;;;;5034368;28;20033;-79
2022/04/01 02:10:59;;;;;;;19.23;5.28;;;14.50;99.90;;;;;;5034254;28;20532;-79
2022/04/01 02:13:27;;;;;;;25.75;6.20;;;14.60;99.90;;;;;;5034342;28;20112;-77
2022/04/01 02:15:53;;;;;;;23.70;5.82;;;14.50;99.90;;;;;;5034342;28;20033;-80
2022/04/01 02:18:20;;;;;;;24.25;6.13;;;14.50;99.90;;;;;;5034114;28;20496;-76
2022/04/01 02:20:47;;;;;;;24.58;6.95;;;14.50;99.90;;;;;;5034151;28;20127;-76
2022/04/01 02:23:13;;;;;;;20.92;5.25;;;14.50;99.90;;;;;;5034026;28;20104;-77
2022/04/01 02:25:42;;;;;;;27.90;5.20;;;14.50;99.90;;;;;;5033992;28;20113;-79
2022/04/01 02:28:10;;;;;;;20.55;6.55;;;14.50;99.90;;;;;;5034145;28;20021;-77
2022/04/01 02:30:36;;;;;;;21.52;5.30;;;14.50;99.90;;;;;;5035721;28;20022;-78
2022/04/01 02:33:02;;;;;;;21.48;5.82;;;14.50;99.90;;;;;;5035772;28;20029;-76
2022/04/01 02:35:28;;;;;;;20.20;6.15;;;14.50;99.90;;;;;;5035574;28;20088;-76
2022/04/01 02:37:54;;;;;;;22.27;6.28;;;14.50;99.90;;;;;;5033869;28;20146;-74
2022/04/01 02:40:20;;;;;;;22.27;5.50;;;14.40;99.90;;;;;;5034310;28;20036;-76
2022/04/01 02:42:46;;;;;;;22.67;4.97;;;14.40;99.90;;;;;;5034504;28;20025;-75
2022/04/01 02:45:13;;;;;;;27.10;6.18;;;14.40;99.90;;;;;;5032341;28;20053;-76
2022/04/01 02:47:40;;;;;;;20.38;5.22;;;14.50;99.90;;;;;;5033838;28;20033;-75
2022/04/01 02:50:07;;;;;;;26.33;5.10;;;14.50;99.90;;;;;;5033902;28;20026;-76
2022/04/01 02:52:33;;;;;;;27.83;6.75;;;14.50;99.90;;;;;;5033874;28;20072;-76
2022/04/01 02:54:59;;;;;;;25.75;5.57;;;14.50;99.90;;;;;;5033608;28;20152;-75
2022/04/01 02:57:24;;;;;;;17.65;5.75;;;14.50;99.90;;;;;;5033524;28;20116;-76
2022/04/01 02:59:50;;;;;;;23.30;5.68;;;14.50;99.90;;;;;;5033475;28;20532;-77
2022/04/01 03:02:16;;;;;;;25.02;5.70;;;14.50;99.90;;;;;;5033690;28;20482;-74
2022/04/01 03:04:42;;;;;;;17.15;5.25;;;14.40;99.90;;;;;;5033503;28;20028;-75
2022/04/01 03:07:08;;;;;;;18.70;5.03;;;14.40;99.90;;;;;;5033980;28;20084;-75
2022/04/01 03:09:33;;;;;;;20.10;4.90;;;14.40;99.90;;;;;;5034436;28;20022;-75
2022/04/01 03:12:00;;;;;;;28.77;6.20;;;14.40;99.90;;;;;;5034249;28;20129;-75
2022/04/01 03:14:26;;;;;;;25.10;5.15;;;14.40;99.90;;;;;;5033772;28;20049;-76
2022/04/01 03:16:53;;;;;;;23.88;6.28;;;14.40;99.90;;;;;;5033394;28;20037;-76
2022/04/01 03:19:19;;;;;;;24.52;6.25;;;14.40;99.90;;;;;;5033115;28;20017;-76
2022/04/01 03:21:45;;;;;;;17.15;5.50;;;14.40;99.90;;;;;;5033025;28;20453;-75
2022/04/01 03:24:11;;;;;;;22.45;5.40;;;14.40;99.90;;;;;;5032907;28;20433;-76
2022/04/01 03:26:39;;;;;;;22.67;5.97;;;14.40;99.90;;;;;;5033047;28;20052;-80
2022/04/01 03:29:10;;;;;;;19.38;6.13;;;14.40;99.90;;;;;;5032839;28;20013;-77
2022/04/01 03:31:37;;;;;;;24.50;5.68;;;14.40;99.90;;;;;;5032821;28;20124;-79
2022/04/01 03:34:04;;;;;;;20.70;6.03;;;14.40;99.90;;;;;;5032880;28;20060;-76
2022/04/01 03:36:31;;;;;;;17.73;5.45;;;14.30;99.90;;;;;;5032987;28;20025;-75
2022/04/01 03:38:57;;;;;;;21.00;6.03;;;14.40;99.90;;;;;;5032997;28;20064;-80
2022/04/01 03:41:23;;;;;;;28.20;6.60;;;14.40;99.90;;;;;;5033018;28;20127;-77
2022/04/01 03:43:51;;;;;;;24.70;5.55;;;14.40;99.90;;;;;;5032920;28;20018;-79
2022/04/01 03:46:20;;;;;;;28.40;6.60;;;14.40;99.90;;;;;;5032799;28;20057;-76
2022/04/01 03:49:03;;;;;;;17.52;5.28;;;14.40;99.90;;;;;;5032613;28;20028;-78
2022/04/01 03:51:30;;;;;;;18.77;5.93;;;14.40;99.90;;;;;;5032648;28;20031;-76
2022/04/01 03:54:00;;;;;;;20.67;5.85;;;14.40;99.90;;;;;;5032717;28;20398;-77
2022/04/01 03:56:31;;;;;;;17.83;5.57;;;14.40;99.90;;;;;;5032819;28;20125;-79
2022/04/01 03:59:03;;;;;;;20.98;5.82;;;14.40;99.90;;;;;;5032546;28;20021;-77
2022/04/01 04:01:29;;;;;;;21.20;5.80;;;14.40;99.90;;;;;;5032520;28;20026;-79
2022/04/01 04:03:56;;;;;;;24.63;7.50;;;14.40;99.90;;;;;;5032557;28;20079;-76
2022/04/01 04:06:23;;;;;;;23.35;5.72;;;14.40;99.90;;;;;;5032537;28;20049;-77
2022/04/01 04:08:53;;;;;;;23.90;6.53;;;14.40;99.90;;;;;;5032618;28;20047;-77
2022/04/01 04:11:24;;;;;;;22.45;6.53;;;14.40;99.90;;;;;;5032495;28;20030;-76
2022/04/01 04:13:52;;;;;;;19.88;5.82;;;14.30;99.90;;;;;;5032276;28;20609;-75
2022/04/01 04:16:29;;;;;;;29.58;7.47;;;14.30;99.90;;;;;;5032395;28;20100;-75
2022/04/01 04:19:08;;;;;;;22.58;6.38;;;14.30;99.90;;;;;;5032841;28;20071;-77
2022/04/01 04:22:13;;;;;;;23.00;6.28;;;14.30;99.90;;;;;;5032484;28;20026;-77
2022/04/01 04:24:48;;;;;;;26.85;5.80;;;14.30;99.90;;;;;;5021353;28;20033;-79
2022/04/01 04:27:17;;;;;;;22.38;6.57;;;14.30;99.90;;;;;;5032374;28;20040;-77
2022/04/01 04:29:48;;;;;;;19.05;6.20;;;14.30;99.80;;;;;;5032421;28;20053;-76
2022/04/01 04:32:35;;;;;;;21.08;6.10;;;14.30;99.80;;;;;;5032492;28;20072;-75
2022/04/01 04:35:08;;;;;;;22.40;6.10;;;14.40;99.80;;;;;;5033085;28;20433;-78
2022/04/01 04:37:36;;;;;;;20.23;6.65;;;14.30;99.70;;;;;;5033778;28;20083;-79
2022/04/01 04:40:04;;;;;;;20.13;5.60;;;14.30;99.80;;;;;;5032531;28;20512;-80
2022/04/01 04:42:32;;;;;;;21.23;6.88;;;14.30;99.80;;;;;;5032453;28;20425;-79
2022/04/01 04:45:01;;;;;;;20.98;6.03;;;14.30;99.70;;;;;;5032311;28;20128;-78
2022/04/01 04:47:28;;;;;;;27.02;7.15;;;14.30;99.90;;;;;;5032491;28;20033;-78
2022/04/01 04:49:57;;;;;;;18.45;5.78;;;14.30;99.70;;;;;;5032570;28;20096;-79
2022/04/01 04:52:32;;;;;;;27.42;6.93;;;14.30;99.60;;;;;;5032725;28;20060;-80
2022/04/01 04:54:59;;;;;;;17.95;5.90;;;14.30;99.80;;;;;;5033118;28;20071;-80
2022/04/01 04:57:27;;;;;;;25.50;6.72;;;14.30;99.80;;;;;;5032573;28;20096;-81
2022/04/01 04:59:56;;;;;;;24.45;6.10;;;14.30;99.70;;;;;;5034521;28;20134;-79
2022/04/01 05:02:39;;;;;;;23.50;6.28;;;14.20;99.70;;;;;;5036160;28;20025;-80
2022/04/01 05:05:13;;;;;;;27.25;6.55;;;14.20;99.80;;;;;;5036080;28;20041;-82
2022/04/01 05:08:07;;;;;;;21.45;5.85;;;14.20;99.70;;;;;;5036141;28;20158;-80
2022/04/01 05:10:51;;;;;;;25.92;6.32;;;14.20;99.60;;;;;;5036193;28;20052;-80
2022/04/01 05:13:38;;;;;;;21.95;6.63;;;14.20;99.60;;;;;;5035437;28;20040;-74
2022/04/01 05:16:05;;;;;;;26.23;7.35;;;14.20;99.80;;;;;;5035751;28;20021;-78
2022/04/01 05:18:39;;;;;;;28.30;6.32;;;14.20;99.50;;;;;;5036220;28;20029;-80
2022/04/01 05:21:18;;;;;;;23.42;7.38;;;14.30;99.50;;;;;;5042720;28;20055;-79
2022/04/01 05:23:59;;;;;;;26.10;6.47;;;14.30;99.50;;;;;;5042420;28;20026;-78
2022/04/01 05:26:38;;;;;;;20.23;6.28;;;14.40;99.40;;;;;;5041201;28;20060;-79
2022/04/01 05:29:09;;;;;;;23.15;5.95;;;14.40;99.10;;;;;;5045412;28;20101;-77
2022/04/01 05:31:37;;;;;;;23.25;6.88;;;14.40;99.20;;;;;;5048230;28;20049;-77
2022/04/01 05:34:07;;;;;;;22.90;6.28;;;14.40;99.10;;;;;;5031667;28;20043;-77
2022/04/01 05:36:36;;;;;;;20.85;5.97;;;14.50;99.10;;;;;;5047455;28;20021;-78
2022/04/01 05:39:03;;;;;;;23.05;6.53;;;14.50;99.10;;;;;;5042282;28;20041;-78
2022/04/01 05:41:30;;;;;;;29.25;6.95;;;14.50;99.10;;;;;;5045398;28;20032;-78
2022/04/01 05:43:57;;;;;;;23.25;6.18;;;14.50;99.00;;;;;;5042535;28;20045;-78
2022/04/01 05:46:25;;;;;;;29.55;6.97;;;14.60;99.00;;;;;;5039957;28;20053;-79
2022/04/01 05:48:53;;;;;;;30.67;6.90;;;14.60;98.90;;;;;;5034926;28;20028;-76
2022/04/01 05:51:19;;;;;;;26.65;7.03;;;14.60;99.00;;;;;;5034721;28;20107;-78
2022/04/01 05:53:51;;;;;;;25.77;7.85;;;14.60;98.90;;;;;;5034747;28;20029;-76
2022/04/01 05:56:17;;;;;;;28.80;7.18;;;14.60;98.90;;;;;;5036156;28;20025;-75
2022/04/01 05:58:43;;;;;;;21.40;6.50;;;14.60;98.90;;;;;;5037314;28;20123;-77
2022/04/01 06:01:42;;;;;;;24.65;6.63;;;14.60;98.80;;;;;;5038737;28;20071;-78
2022/04/01 06:04:39;;;;;;;25.88;6.60;;;14.70;98.70;;;;;;5034733;28;20028;-77
2022/04/01 06:07:46;;;;;;;27.23;6.70;;;14.60;98.60;;;;;;5034820;28;20071;-78
2022/04/01 06:10:29;;;;;;;24.40;6.88;;;14.70;98.50;;;;;;5034444;28;20025;-80
2022/04/01 06:13:20;;;;;;;24.73;7.20;;;14.80;98.30;;;;;;5034719;28;20517;-79
2022/04/01 06:16:14;;;;;;;27.85;6.60;;;14.90;98.20;;;;;;5034080;28;20028;-79
2022/04/01 06:18:47;;;;;;;23.90;6.33;;;14.90;97.90;;;;;;5033980;28;20025;-79
2022/04/01 06:21:22;;;;;;;23.52;6.30;;;15.00;97.50;;;;;;5034228;28;20033;-80
2022/04/01 06:24:17;;;;;;;28.52;6.70;;;15.10;97.40;;;;;;5034114;28;20040;-78
2022/04/01 06:26:57;;;;;;;25.27;6.57;;;15.20;97.00;;;;;;5033754;28;20045;-79
2022/04/01 06:29:38;;;;;;;23.10;6.40;;;15.30;96.60;;;;;;5032542;28;20029;-81
2022/04/01 06:32:07;;;;;;;23.42;5.65;;;15.30;95.80;;;;;;5032708;28;20474;-79
2022/04/01 06:34:42;;;;;;;24.30;6.05;;;15.30;95.80;;;;;;5034177;28;20028;-78
2022/04/01 06:37:14;;;;;;;23.55;5.80;;;15.40;95.70;;;;;;5033819;28;20107;-80
2022/04/01 06:39:49;;;;;;;23.90;5.57;;;15.40;95.50;;;;;;5033528;28;20020;-79
2022/04/01 06:42:19;;;;;;;24.55;5.93;;;15.50;95.40;;;;;;5031840;28;20037;-82
2022/04/01 06:44:47;;;;;;;24.05;5.38;;;15.50;95.50;;;;;;5032880;28;20404;-79
2022/04/01 06:47:13;;;;;;;20.50;5.55;;;15.50;95.40;;;;;;5034174;28;20049;-81
2022/04/01 06:49:38;;;;;;;18.58;5.75;;;15.50;95.20;;;;;;5033854;28;20029;-77
2022/04/01 06:52:05;;;;;;;26.17;5.90;;;15.50;95.20;;;;;;5033703;28;20087;-79
2022/04/01 06:54:30;;;;;;;25.00;6.80;;;15.40;95.10;;;;;;5033296;28;20041;-76
2022/04/01 06:56:56;;;;;;;23.10;6.22;;;15.40;94.90;;;;;;5033600;28;20025;-76
2022/04/01 06:59:22;;;;;;;19.73;5.80;;;15.40;95.00;;;;;;5033484;28;20154;-78
2022/04/01 07:01:47;;;;;;;26.35;6.22;;;15.30;94.90;;;;;;5033332;28;20076;-76
2022/04/01 07:04:14;;;;;;;25.27;6.45;;;15.30;94.80;;;;;;5032922;28;20052;-78
2022/04/01 07:06:40;;;;;;;17.67;5.47;;;15.30;94.80;;;;;;5032809;28;20025;-74
2022/04/01 07:09:05;;;;;;;22.02;5.32;;;15.30;94.50;;;;;;5032719;28;20376;-80
2022/04/01 07:11:32;;;;;;;15.23;3.90;;;15.20;93.60;;;;;;5032707;28;20037;-75
2022/04/01 07:13:58;;;;;;;18.15;5.07;;;15.10;93.00;;;;;;5031621;28;20030;-78
2022/04/01 07:16:24;;;;;;;14.07;4.00;;;15.10;92.60;;;;;;5033167;28;20021;-76
2022/04/01 07:18:50;;;;;;;9.95;3.75;;;15.00;91.20;;;;;;5033156;28;20053;-78
2022/04/01 07:21:16;;;;;;;12.55;3.13;;;15.00;90.90;;;;;;5032991;28;20072;-76
2022/04/01 07:23:42;;;;;;;9.43;3.65;;;14.80;90.20;;;;;;5032720;28;20034;-76
2022/04/01 07:26:09;;;;;;;8.95;3.65;;;14.70;90.40;;;;;;5032810;28;20072;-75
2022/04/01 07:28:35;;;;;;;12.43;3.88;;;14.50;90.60;;;;;;5032515;28;20486;-76
2022/04/01 07:32:29;;;;;;;11.73;3.75;;;14.40;90.90;;;;;;5031519;28;20072;-78
2022/04/01 07:33:47;;;;;;;11.60;4.57;;;14.40;91.60;;;;;;5032471;28;20502;-77
2022/04/01 07:36:13;;;;;;;12.30;3.75;;;14.40;92.00;;;;;;5032748;28;20053;-76
2022/04/01 07:38:39;;;;;;;15.63;4.93;;;14.40;92.10;;;;;;5032516;28;20036;-78
2022/04/01 07:41:06;;;;;;;9.65;4.30;;;14.30;92.30;;;;;;5032972;28;20033;-77
2022/04/01 07:43:31;;;;;;;11.20;3.95;;;14.40;92.50;;;;;;5032569;28;20390;-77
2022/04/01 07:45:57;;;;;;;11.20;4.35;;;14.40;92.60;;;;;;5032554;28;20067;-78
2022/04/01 07:48:23;;;;;;;14.80;4.25;;;14.60;92.60;;;;;;5032754;28;20128;-77
2022/04/01 07:50:49;;;;;;;12.57;4.28;;;14.70;92.40;;;;;;5032999;28;20018;-76
2022/04/01 07:53:17;;;;;;;12.65;4.18;;;14.80;92.40;;;;;;5032667;28;20060;-76
2022/04/01 07:55:48;;;;;;;14.55;4.13;;;14.90;92.10;;;;;;5032778;28;20105;-76
2022/04/01 07:58:15;;;;;;;12.95;4.43;;;15.10;91.80;;;;;;5032449;28;20489;-77
2022/04/01 08:00:41;;;;;;;17.05;4.60;;;15.20;91.30;;;;;;5032508;28;20101;-75
2022/04/01 08:03:08;;;;;;;12.40;5.05;;;15.40;91.20;;;;;;5032397;28;20042;-79
2022/04/01 08:05:34;;;;;;;12.18;4.78;;;15.50;91.30;;;;;;5032415;28;20044;-77
2022/04/01 08:07:59;;;;;;;11.50;3.90;;;15.60;91.00;;;;;;5032399;28;20037;-77
2022/04/01 08:10:25;;;;;;;17.50;4.25;;;15.70;90.80;;;;;;5031022;28;20576;-78
2022/04/01 08:12:51;;;;;;;8.95;3.90;;;15.80;90.80;;;;;;5031766;28;20038;-76
2022/04/01 08:15:18;;;;;;;12.98;4.28;;;15.90;90.30;;;;;;5032103;28;20100;-76
2022/04/01 08:17:44;;;;;;;10.73;3.63;;;15.90;89.90;;;;;;5031878;28;20108;-77
2022/04/01 08:20:12;;;;;;;12.60;4.53;;;16.00;88.40;;;;;;5012880;28;20428;-78
2022/04/01 08:22:38;;;;;;;12.57;3.90;;;16.00;88.00;;;;;;5012862;28;20026;-76
2022/04/01 08:25:05;;;;;;;12.32;5.43;;;15.90;87.90;;;;;;5012273;28;20049;-78
2022/04/01 08:27:30;;;;;;;10.95;4.20;;;15.80;88.30;;;;;;5026353;28;20029;-78
2022/04/01 08:29:59;;;;;;;20.63;8.77;;;15.60;88.80;;;;;;5032191;28;20132;-74
2022/04/01 08:32:26;;;;;;;16.08;7.32;;;15.60;89.20;;;;;;5031675;28;20543;-76
2022/04/01 08:34:52;;;;;;;13.77;4.47;;;15.60;89.90;;;;;;5033919;28;20064;-80
2022/04/01 08:37:18;;;;;;;15.32;5.15;;;15.70;89.40;;;;;;5035848;28;20498;-76
2022/04/01 08:39:45;;;;;;;22.40;5.30;;;15.70;88.40;;;;;;5035750;28;20040;-78
2022/04/01 08:42:11;;;;;;;13.02;4.60;;;15.80;88.40;;;;;;5036138;28;20034;-76
2022/04/01 08:44:41;;;;;;;11.48;5.00;;;15.80;88.40;;;;;;5036204;28;20050;-77
2022/04/01 08:47:08;;;;;;;13.93;4.40;;;15.80;87.90;;;;;;5037075;28;20063;-78
2022/04/01 08:49:34;;;;;;;13.00;4.40;;;15.80;88.00;;;;;;5038295;28;20024;-78
2022/04/01 08:52:00;;;;;;;12.15;3.88;;;15.70;87.90;;;;;;5035427;28;20034;-78
2022/04/01 08:54:26;;;;;;;11.40;4.20;;;15.70;87.40;;;;;;5035529;28;20044;-76
2022/04/01 08:56:51;;;;;;;10.40;3.85;;;15.70;87.40;;;;;;5035555;28;20029;-76
2022/04/01 08:59:17;;;;;;;17.05;5.43;;;15.70;87.50;;;;;;5035184;28;20026;-79
2022/04/01 09:01:44;;;;;;;11.43;3.38;;;15.80;87.20;;;;;;5035221;28;20026;-77
2022/04/01 09:04:23;;;;;;;8.95;3.65;;;15.90;86.10;;;;;;5035180;28;20029;-77
2022/04/01 09:06:50;;;;;;;11.95;3.67;;;15.90;85.40;;;;;;5034310;28;20029;-79
2022/04/01 09:09:29;;;;;;;10.85;3.25;;;15.90;84.80;;;;;;5035392;28;20035;-76
2022/04/01 09:12:16;;;;;;;14.60;3.50;;;15.90;84.70;;;;;;5034917;28;20033;-78
2022/04/01 09:14:51;;;;;;;10.10;3.70;;;15.90;84.80;;;;;;5034968;28;20112;-77
2022/04/01 09:17:17;;;;;;;11.43;3.25;;;15.90;84.00;;;;;;5035099;28;20497;-78
2022/04/01 09:19:43;;;;;;;10.45;3.88;;;15.90;83.90;;;;;;5067030;28;20045;-78
2022/04/01 09:22:22;;;;;;;9.65;3.17;;;15.80;83.70;;;;;;5034931;28;20040;-78
2022/04/01 09:25:14;;;;;;;6.07;3.08;;;15.80;84.30;;;;;;5034825;28;20037;-76
2022/04/01 09:27:48;;;;;;;8.07;3.22;;;15.80;83.00;;;;;;5034794;28;20018;-78
2022/04/01 09:30:15;;;;;;;;;;;15.80;82.10;;;;;;5035328;28;20047;-78
2022/04/01 09:33:01;;;;;;;10.52;3.25;;;16.00;79.90;;;;;;5034636;28;20408;-75
2022/04/01 09:35:29;;;;;;;6.60;2.72;;;16.30;80.30;;;;;;5034753;28;20026;-78
2022/04/01 09:38:07;;;;;;;6.82;2.80;;;16.40;79.30;;;;;;5034777;28;20025;-78
2022/04/01 09:40:35;;;;;;;8.23;2.95;;;16.40;78.60;;;;;;5034860;28;20399;-76
2022/04/01 09:43:01;;;;;;;8.70;3.60;;;16.40;79.30;;;;;;5034827;28;20032;-79
2022/04/01 09:45:32;;;;;;;12.90;4.45;;;16.40;79.80;;;;;;5034183;28;20045;-78
2022/04/01 09:48:08;;;;;;;14.25;5.35;;;16.40;79.50;;;;;;5034394;28;20082;-76
2022/04/01 09:50:40;;;;;;;19.63;10.48;;;16.50;80.10;;;;;;5034850;28;20022;-76
2022/04/01 09:53:14;;;;;;;22.73;7.82;;;16.60;79.60;;;;;;5034383;28;20121;-80
2022/04/01 09:55:43;;;;;;;18.48;6.22;;;16.60;79.40;;;;;;5034498;28;20033;-78
2022/04/01 09:58:10;;;;;;;12.57;5.40;;;16.60;79.00;;;;;;5034360;28;20025;-79
2022/04/01 10:00:37;;;;;;;11.40;4.30;;;16.50;79.80;;;;;;5034628;28;20104;-76
2022/04/01 10:03:06;;;;;;;12.20;4.75;;;16.40;79.70;;;;;;5066073;28;20040;-79
2022/04/01 10:05:37;;;;;;;9.88;4.50;;;16.40;80.10;;;;;;5034763;28;20060;-76
2022/04/01 10:08:06;;;;;;;11.63;4.80;;;16.60;80.20;;;;;;5066459;28;20045;-77
2022/04/01 10:10:32;;;;;;;12.85;4.75;;;16.70;80.30;;;;;;5034470;28;20069;-75
2022/04/01 10:13:05;;;;;;;8.77;4.10;;;16.60;81.00;;;;;;5034022;28;20041;-74
2022/04/01 10:15:32;;;;;;;21.50;4.72;;;16.70;82.40;;;;;;5034171;28;20029;-76
2022/04/01 10:17:58;;;;;;;14.95;4.75;;;16.70;81.80;;;;;;5034236;28;20025;-77
2022/04/01 10:20:33;;;;;;;13.43;4.47;;;16.90;80.90;;;;;;5034028;28;20025;-76
2022/04/01 10:23:06;;;;;;;13.35;4.10;;;17.00;80.20;;;;;;5033979;28;20029;-76
2022/04/01 10:25:53;;;;;;;12.35;4.65;;;16.90;80.10;;;;;;5033895;28;20029;-76
2022/04/01 10:28:21;;;;;;;14.35;4.80;;;16.80;80.50;;;;;;5034209;28;20037;-79
2022/04/01 10:30:51;;;;;;;17.77;4.80;;;16.80;80.50;;;;;;5033750;28;20155;-76
2022/04/01 10:33:35;;;;;;;16.40;5.07;;;16.90;80.00;;;;;;5033737;28;20034;-76
2022/04/01 10:36:26;;;;;;;14.20;5.38;;;16.90;79.80;;;;;;5033889;28;20029;-78
2022/04/01 10:39:06;;;;;;;14.07;5.10;;;16.90;79.40;;;;;;5033520;28;20060;-78
2022/04/01 10:41:32;;;;;;;13.98;5.05;;;16.90;80.10;;;;;;5033698;28;20509;-77
2022/04/01 10:44:01;;;;;;;13.80;5.20;;;16.90;80.00;;;;;;5033850;28;20545;-78
2022/04/01 10:46:27;;;;;;;14.00;4.97;;;16.90;79.70;;;;;;5033594;28;20144;-78
2022/04/01 10:52:22;;;;;;;17.08;5.28;;;17.00;79.20;;;;;;5033482;28;20091;-78
2022/04/01 10:55:11;;;;;;;13.60;4.35;;;17.00;79.10;;;;;;5021245;28;20034;-77
2022/04/01 10:57:43;;;;;;;12.63;4.78;;;17.20;77.60;;;;;;5031776;28;20304;-77
2022/04/01 11:00:15;;;;;;;15.18;4.95;;;17.10;77.30;;;;;;5033046;28;20068;-80
2022/04/01 11:02:42;;;;;;;18.27;5.93;;;17.00;77.10;;;;;;5033642;28;20053;-77
2022/04/01 11:05:30;;;;;;;15.32;5.10;;;17.00;76.10;;;;;;5033180;28;20467;-77
2022/04/01 11:08:15;;;;;;;15.18;5.00;;;17.20;74.90;;;;;;5033195;28;20029;-78
2022/04/01 11:11:12;;;;;;;15.57;4.82;;;17.40;72.90;;;;;;5033122;28;20104;-78
2022/04/01 11:13:39;;;;;;;15.70;4.93;;;17.40;71.80;;;;;;5031355;28;20034;-78
2022/04/01 11:16:21;;;;;;;15.70;5.72;;;17.60;68.60;;;;;;5033027;28;20441;-76
2022/04/01 11:19:27;;;;;;;17.45;5.40;;;17.60;69.00;;;;;;5033320;28;20033;-77
2022/04/01 11:21:54;;;;;;;14.80;5.75;;;17.60;67.20;;;;;;5033066;28;20033;-78
2022/04/01 11:24:28;;;;;;;19.10;7.07;;;17.70;66.70;;;;;;5031550;28;20051;-74
2022/04/01 11:26:54;;;;;;;15.20;5.30;;;17.70;66.60;;;;;;5033021;28;20040;-76
2022/04/01 11:29:22;;;;;;;21.55;5.15;;;18.00;66.50;;;;;;5031733;28;20026;-79
2022/04/01 11:31:49;;;;;;;21.42;5.93;;;18.20;65.80;;;;;;5064987;28;20087;-77
2022/04/01 11:34:15;;;;;;;16.33;5.68;;;18.40;65.60;;;;;;5033168;28;20025;-76
2022/04/01 11:36:42;;;;;;;24.88;5.35;;;18.40;64.10;;;;;;5034116;28;20021;-78
2022/04/01 11:39:14;;;;;;;14.18;5.53;;;18.30;63.90;;;;;;5034074;28;20028;-79
2022/04/01 11:41:48;;;;;;;16.17;5.75;;;18.20;62.90;;;;;;5033555;28;20076;-77
2022/04/01 11:44:15;;;;;;;15.52;4.90;;;18.30;62.80;;;;;;5033051;28;20034;-79
2022/04/01 11:46:41;;;;;;;19.23;5.70;;;18.40;62.90;;;;;;5032996;28;20057;-80
2022/04/01 11:49:10;;;;;;;19.92;5.82;;;18.40;61.80;;;;;;5033598;28;20052;-79
2022/04/01 11:51:39;;;;;;;20.33;5.20;;;18.30;62.50;;;;;;5031935;28;20113;-78
2022/04/01 11:54:04;;;;;;;18.33;5.68;;;18.10;62.50;;;;;;5033011;28;20021;-76
2022/04/01 11:56:30;;;;;;;23.83;5.93;;;18.10;63.40;;;;;;5033010;28;20032;-76
2022/04/01 11:59:00;;;;;;;24.65;6.50;;;18.00;64.60;;;;;;5032438;28;20037;-77
2022/04/01 12:01:31;;;;;;;18.60;5.43;;;17.80;64.30;;;;;;5031257;28;20030;-78
2022/04/01 12:04:09;;;;;;;19.58;5.13;;;17.60;65.80;;;;;;5032776;28;20021;-79
2022/04/01 12:09:31;;;;;;;16.35;5.10;;;17.20;68.40;;;;;;5036234;28;20032;-77
2022/04/01 12:12:01;;;;;;;20.80;5.18;;;16.90;70.60;;;;;;5037101;28;20052;-78
2022/04/01 12:14:28;;;;;;;23.45;6.63;;;16.80;71.70;;;;;;5037031;28;20037;-77
2022/04/01 12:16:53;;;;;;;20.30;6.13;;;16.80;72.80;;;;;;5036774;28;20049;-78
2022/04/01 12:19:21;;;;;;;23.83;5.93;;;17.10;73.40;;;;;;5036518;28;20068;-76
2022/04/01 12:21:53;;;;;;;14.50;5.18;;;17.20;73.30;;;;;;5036498;28;20030;-76
2022/04/01 12:24:19;;;;;;;20.23;5.80;;;17.30;73.40;;;;;;5036887;28;20037;-77
2022/04/01 12:26:47;;;;;;;27.52;6.00;;;17.40;72.70;;;;;;5036462;28;20017;-77
2022/04/01 12:29:21;;;;;;;20.58;6.70;;;17.40;71.80;;;;;;5036426;28;20037;-78
2022/04/01 12:31:56;;;;;;;17.88;5.28;;;17.40;71.50;;;;;;5035930;28;20026;-77
2022/04/01 12:34:23;;;;;;;21.98;5.30;;;17.40;71.40;;;;;;5036705;28;20022;-78
2022/04/01 12:37:04;;;;;;;18.73;6.03;;;17.40;70.70;;;;;;5036535;28;20025;-76
2022/04/01 12:39:39;;;;;;;19.75;5.47;;;17.40;71.00;;;;;;5036293;28;20025;-77
2022/04/01 12:42:15;;;;;;;16.83;5.00;;;17.40;71.20;;;;;;5036368;28;20382;-77
2022/04/01 12:44:41;;;;;;;22.58;5.30;;;17.50;70.10;;;;;;5035866;28;20480;-78
2022/04/01 12:47:08;;;;;;;14.68;4.95;;;17.60;69.80;;;;;;5036189;28;20110;-78
2022/04/01 12:49:36;;;;;;;20.00;5.70;;;17.60;69.40;;;;;;5035946;28;20064;-78
2022/04/01 12:52:12;;;;;;;20.17;5.28;;;17.60;69.60;;;;;;5035867;28;20434;-78
2022/04/01 12:54:40;;;;;;;21.55;5.50;;;17.50;70.00;;;;;;5035902;28;20058;-79
2022/04/01 12:57:11;;;;;;;18.77;5.50;;;17.40;69.50;;;;;;5034671;28;20045;-76
2022/04/01 12:59:45;;;;;;;22.02;5.32;;;17.30;70.90;;;;;;5035866;28;20028;-79
2022/04/01 13:02:17;;;;;;;19.92;5.57;;;17.20;68.70;;;;;;5036172;28;20037;-80
2022/04/01 13:04:55;;;;;;;18.30;4.95;;;17.10;68.40;;;;;;5035878;28;20167;-77
2022/04/01 13:07:34;;;;;;;20.90;5.05;;;17.00;68.50;;;;;;5036229;28;20075;-78